sensor_id;sensor_type;location;lat;lon;timestamp;temperature;humidity
37456;DHT22;23316;50.718;7.328;2023-09-19T00:01:43;19.80;56.60
37456;DHT22;23316;50.718;7.328;2023-09-19T00:04:13;19.80;56.70
37456;DHT22;23316;50.718;7.328;2023-09-19T00:06:40;19.70;56.60
37456;DHT22;23316;50.718;7.328;2023-09-19T00:09:08;19.70;56.60
37456;DHT22;23316;50.718;7.328;2023-09-19T00:11:36;19.70;56.50
37456;DHT22;23316;50.718;7.328;2023-09-19T00:14:04;19.70;56.30
37456;DHT22;23316;50.718;7.328;2023-09-19T00:16:34;19.60;56.20
37456;DHT22;23316;50.718;7.328;2023-09-19T00:19:02;19.60;56.20
37456;DHT22;23316;50.718;7.328;2023-09-19T00:21:35;19.60;56.40
37456;DHT22;23316;50.718;7.328;2023-09-19T00:24:04;19.60;56.40
37456;DHT22;23316;50.718;7.328;2023-09-19T00:26:32;19.50;56.30
37456;DHT22;23316;50.718;7.328;2023-09-19T00:29:00;19.50;56.30
37456;DHT22;23316;50.718;7.328;2023-09-19T00:31:31;19.50;56.40
37456;DHT22;23316;50.718;7.328;2023-09-19T00:33:59;19.40;56.30
37456;DHT22;23316;50.718;7.328;2023-09-19T00:36:30;19.40;56.40
37456;DHT22;23316;50.718;7.328;2023-09-19T00:38:58;19.40;56.40
37456;DHT22;23316;50.718;7.328;2023-09-19T00:41:26;19.40;56.40
37456;DHT22;23316;50.718;7.328;2023-09-19T00:43:56;19.40;56.10
37456;DHT22;23316;50.718;7.328;2023-09-19T00:46:23;19.30;55.80
37456;DHT22;23316;50.718;7.328;2023-09-19T00:48:51;19.30;55.90
37456;DHT22;23316;50.718;7.328;2023-09-19T00:51:19;19.30;56.10
37456;DHT22;23316;50.718;7.328;2023-09-19T00:53:48;19.30;56.30
37456;DHT22;23316;50.718;7.328;2023-09-19T00:56:17;19.30;56.20
37456;DHT22;23316;50.718;7.328;2023-09-19T00:58:44;19.20;56.20
37456;DHT22;23316;50.718;7.328;2023-09-19T01:01:12;19.20;56.30
37456;DHT22;23316;50.718;7.328;2023-09-19T01:03:40;19.30;56.50
37456;DHT22;23316;50.718;7.328;2023-09-19T01:06:08;19.20;56.50
37456;DHT22;23316;50.718;7.328;2023-09-19T01:08:35;19.20;56.50
37456;DHT22;23316;50.718;7.328;2023-09-19T01:11:09;19.20;56.40
37456;DHT22;23316;50.718;7.328;2023-09-19T01:13:47;19.20;56.40
37456;DHT22;23316;50.718;7.328;2023-09-19T01:16:21;19.20;56.40
37456;DHT22;23316;50.718;7.328;2023-09-19T01:18:59;19.20;56.40
37456;DHT22;23316;50.718;7.328;2023-09-19T01:21:34;19.20;56.40
37456;DHT22;23316;50.718;7.328;2023-09-19T01:24:25;19.20;56.50
37456;DHT22;23316;50.718;7.328;2023-09-19T01:27:25;19.20;56.40
37456;DHT22;23316;50.718;7.328;2023-09-19T01:30:09;19.20;56.50
37456;DHT22;23316;50.718;7.328;2023-09-19T01:32:38;19.20;56.50
37456;DHT22;23316;50.718;7.328;2023-09-19T01:35:07;19.20;56.40
37456;DHT22;23316;50.718;7.328;2023-09-19T01:37:38;19.20;56.50
37456;DHT22;23316;50.718;7.328;2023-09-19T01:40:11;19.20;56.30
37456;DHT22;23316;50.718;7.328;2023-09-19T01:42:45;19.20;56.40
37456;DHT22;23316;50.718;7.328;2023-09-19T01:45:25;19.20;56.30
37456;DHT22;23316;50.718;7.328;2023-09-19T01:47:55;19.20;56.20
37456;DHT22;23316;50.718;7.328;2023-09-19T01:50:29;19.20;56.20
37456;DHT22;23316;50.718;7.328;2023-09-19T01:53:02;19.20;56.10
37456;DHT22;23316;50.718;7.328;2023-09-19T01:55:35;19.30;56.00
37456;DHT22;23316;50.718;7.328;2023-09-19T01:58:06;19.30;56.00
37456;DHT22;23316;50.718;7.328;2023-09-19T02:00:38;19.30;55.90
37456;DHT22;23316;50.718;7.328;2023-09-19T02:03:09;19.30;55.90
37456;DHT22;23316;50.718;7.328;2023-09-19T02:05:37;19.30;55.90
37456;DHT22;23316;50.718;7.328;2023-09-19T02:08:05;19.30;55.80
37456;DHT22;23316;50.718;7.328;2023-09-19T02:10:32;19.30;55.70
37456;DHT22;23316;50.718;7.328;2023-09-19T02:13:00;19.30;55.60
37456;DHT22;23316;50.718;7.328;2023-09-19T02:15:30;19.30;55.40
37456;DHT22;23316;50.718;7.328;2023-09-19T02:18:03;19.40;55.40
37456;DHT22;23316;50.718;7.328;2023-09-19T02:20:31;19.30;55.30
37456;DHT22;23316;50.718;7.328;2023-09-19T02:22:59;19.40;55.20
37456;DHT22;23316;50.718;7.328;2023-09-19T02:25:26;19.40;55.20
37456;DHT22;23316;50.718;7.328;2023-09-19T02:27:53;19.40;55.20
37456;DHT22;23316;50.718;7.328;2023-09-19T02:30:24;19.30;55.00
37456;DHT22;23316;50.718;7.328;2023-09-19T02:32:52;19.40;55.00
37456;DHT22;23316;50.718;7.328;2023-09-19T02:35:20;19.40;54.90
37456;DHT22;23316;50.718;7.328;2023-09-19T02:37:48;19.40;55.40
37456;DHT22;23316;50.718;7.328;2023-09-19T02:40:16;19.40;54.90
37456;DHT22;23316;50.718;7.328;2023-09-19T02:42:46;19.40;54.90
37456;DHT22;23316;50.718;7.328;2023-09-19T02:45:15;19.40;54.80
37456;DHT22;23316;50.718;7.328;2023-09-19T02:47:43;19.40;54.90
37456;DHT22;23316;50.718;7.328;2023-09-19T02:50:11;19.40;55.00
37456;DHT22;23316;50.718;7.328;2023-09-19T02:52:43;19.40;54.90
37456;DHT22;23316;50.718;7.328;2023-09-19T02:55:10;19.40;54.90
37456;DHT22;23316;50.718;7.328;2023-09-19T02:57:39;19.40;54.80
37456;DHT22;23316;50.718;7.328;2023-09-19T03:00:10;19.40;54.70
37456;DHT22;23316;50.718;7.328;2023-09-19T03:02:39;19.30;54.70
37456;DHT22;23316;50.718;7.328;2023-09-19T03:05:08;19.30;54.60
37456;DHT22;23316;50.718;7.328;2023-09-19T03:07:38;19.30;54.60
37456;DHT22;23316;50.718;7.328;2023-09-19T03:10:08;19.30;54.50
37456;DHT22;23316;50.718;7.328;2023-09-19T03:12:36;19.30;54.40
37456;DHT22;23316;50.718;7.328;2023-09-19T03:15:06;19.20;54.30
37456;DHT22;23316;50.718;7.328;2023-09-19T03:17:35;19.20;54.30
37456;DHT22;23316;50.718;7.328;2023-09-19T03:20:04;19.20;54.40
37456;DHT22;23316;50.718;7.328;2023-09-19T03:22:34;19.20;54.40
37456;DHT22;23316;50.718;7.328;2023-09-19T03:25:02;19.10;54.40
37456;DHT22;23316;50.718;7.328;2023-09-19T03:27:35;19.20;54.40
37456;DHT22;23316;50.718;7.328;2023-09-19T03:30:03;19.10;54.30
37456;DHT22;23316;50.718;7.328;2023-09-19T03:32:34;19.10;54.30
37456;DHT22;23316;50.718;7.328;2023-09-19T03:35:02;19.10;54.30
37456;DHT22;23316;50.718;7.328;2023-09-19T03:37:31;19.00;54.20
37456;DHT22;23316;50.718;7.328;2023-09-19T03:40:00;19.00;54.20
37456;DHT22;23316;50.718;7.328;2023-09-19T03:42:31;19.00;54.30
37456;DHT22;23316;50.718;7.328;2023-09-19T03:45:00;19.00;54.30
37456;DHT22;23316;50.718;7.328;2023-09-19T03:47:30;19.00;54.30
37456;DHT22;23316;50.718;7.328;2023-09-19T03:49:58;18.90;54.30
37456;DHT22;23316;50.718;7.328;2023-09-19T03:52:25;18.90;54.30
37456;DHT22;23316;50.718;7.328;2023-09-19T03:54:53;18.90;54.30
37456;DHT22;23316;50.718;7.328;2023-09-19T03:57:21;18.90;54.30
37456;DHT22;23316;50.718;7.328;2023-09-19T03:59:48;18.90;54.40
37456;DHT22;23316;50.718;7.328;2023-09-19T04:02:17;18.90;54.40
37456;DHT22;23316;50.718;7.328;2023-09-19T04:04:50;18.90;54.40
37456;DHT22;23316;50.718;7.328;2023-09-19T04:07:18;18.80;54.30
37456;DHT22;23316;50.718;7.328;2023-09-19T04:09:48;18.80;54.40
37456;DHT22;23316;50.718;7.328;2023-09-19T04:12:16;18.80;54.60
37456;DHT22;23316;50.718;7.328;2023-09-19T04:14:44;18.80;54.70
37456;DHT22;23316;50.718;7.328;2023-09-19T04:17:11;18.80;54.80
37456;DHT22;23316;50.718;7.328;2023-09-19T04:19:40;18.80;54.80
37456;DHT22;23316;50.718;7.328;2023-09-19T04:22:07;18.70;54.80
37456;DHT22;23316;50.718;7.328;2023-09-19T04:24:36;18.70;54.80
37456;DHT22;23316;50.718;7.328;2023-09-19T04:27:12;18.70;55.00
37456;DHT22;23316;50.718;7.328;2023-09-19T04:29:41;18.70;55.10
37456;DHT22;23316;50.718;7.328;2023-09-19T04:32:09;18.70;55.10
37456;DHT22;23316;50.718;7.328;2023-09-19T04:34:36;18.70;55.20
37456;DHT22;23316;50.718;7.328;2023-09-19T04:37:06;18.70;55.30
37456;DHT22;23316;50.718;7.328;2023-09-19T04:39:33;18.70;55.30
37456;DHT22;23316;50.718;7.328;2023-09-19T04:42:01;18.70;55.30
37456;DHT22;23316;50.718;7.328;2023-09-19T04:44:30;18.70;55.30
37456;DHT22;23316;50.718;7.328;2023-09-19T04:46:57;18.60;55.30
37456;DHT22;23316;50.718;7.328;2023-09-19T04:49:25;18.60;55.30
37456;DHT22;23316;50.718;7.328;2023-09-19T04:51:52;18.60;55.40
37456;DHT22;23316;50.718;7.328;2023-09-19T04:54:23;18.60;55.40
37456;DHT22;23316;50.718;7.328;2023-09-19T04:56:51;18.60;55.40
37456;DHT22;23316;50.718;7.328;2023-09-19T04:59:18;18.50;55.40
37456;DHT22;23316;50.718;7.328;2023-09-19T05:01:45;18.50;55.40
37456;DHT22;23316;50.718;7.328;2023-09-19T05:04:13;18.50;55.40
37456;DHT22;23316;50.718;7.328;2023-09-19T05:06:40;18.50;55.50
37456;DHT22;23316;50.718;7.328;2023-09-19T05:09:08;18.50;55.50
37456;DHT22;23316;50.718;7.328;2023-09-19T05:11:37;18.40;55.40
37456;DHT22;23316;50.718;7.328;2023-09-19T05:14:05;18.40;55.50
37456;DHT22;23316;50.718;7.328;2023-09-19T05:16:32;18.40;55.60
37456;DHT22;23316;50.718;7.328;2023-09-19T05:19:00;18.40;55.60
37456;DHT22;23316;50.718;7.328;2023-09-19T05:21:27;18.40;55.60
37456;DHT22;23316;50.718;7.328;2023-09-19T05:23:56;18.30;55.50
37456;DHT22;23316;50.718;7.328;2023-09-19T05:26:23;18.30;55.50
37456;DHT22;23316;50.718;7.328;2023-09-19T05:28:52;18.30;55.30
37456;DHT22;23316;50.718;7.328;2023-09-19T05:31:20;18.30;55.20
37456;DHT22;23316;50.718;7.328;2023-09-19T05:33:47;18.30;55.10
37456;DHT22;23316;50.718;7.328;2023-09-19T05:36:15;18.20;55.10
37456;DHT22;23316;50.718;7.328;2023-09-19T05:38:43;18.20;55.10
37456;DHT22;23316;50.718;7.328;2023-09-19T05:41:11;18.10;55.10
37456;DHT22;23316;50.718;7.328;2023-09-19T05:43:39;18.10;55.20
37456;DHT22;23316;50.718;7.328;2023-09-19T05:46:08;18.10;55.30
37456;DHT22;23316;50.718;7.328;2023-09-19T05:48:35;18.10;55.30
37456;DHT22;23316;50.718;7.328;2023-09-19T05:51:05;18.00;55.30
37456;DHT22;23316;50.718;7.328;2023-09-19T05:53:32;18.10;55.30
37456;DHT22;23316;50.718;7.328;2023-09-19T05:56:00;18.00;55.30
37456;DHT22;23316;50.718;7.328;2023-09-19T05:58:27;18.00;55.30
37456;DHT22;23316;50.718;7.328;2023-09-19T06:00:54;18.00;55.30
37456;DHT22;23316;50.718;7.328;2023-09-19T06:03:23;18.00;55.40
37456;DHT22;23316;50.718;7.328;2023-09-19T06:05:50;18.00;55.40
37456;DHT22;23316;50.718;7.328;2023-09-19T06:08:18;18.00;55.40
37456;DHT22;23316;50.718;7.328;2023-09-19T06:10:46;18.00;55.40
37456;DHT22;23316;50.718;7.328;2023-09-19T06:13:14;18.00;55.50
37456;DHT22;23316;50.718;7.328;2023-09-19T06:15:42;18.00;55.50
37456;DHT22;23316;50.718;7.328;2023-09-19T06:18:11;18.00;55.50
37456;DHT22;23316;50.718;7.328;2023-09-19T06:20:42;18.10;55.50
37456;DHT22;23316;50.718;7.328;2023-09-19T06:23:10;18.10;55.50
37456;DHT22;23316;50.718;7.328;2023-09-19T06:25:37;18.10;55.50
37456;DHT22;23316;50.718;7.328;2023-09-19T06:28:05;18.10;55.40
37456;DHT22;23316;50.718;7.328;2023-09-19T06:30:34;18.10;55.30
37456;DHT22;23316;50.718;7.328;2023-09-19T06:33:02;18.10;55.30
37456;DHT22;23316;50.718;7.328;2023-09-19T06:35:32;18.10;55.20
37456;DHT22;23316;50.718;7.328;2023-09-19T06:38:04;18.20;55.20
37456;DHT22;23316;50.718;7.328;2023-09-19T06:40:34;18.10;55.10
37456;DHT22;23316;50.718;7.328;2023-09-19T06:43:01;18.20;55.10
37456;DHT22;23316;50.718;7.328;2023-09-19T06:45:29;18.20;55.10
37456;DHT22;23316;50.718;7.328;2023-09-19T06:47:57;18.20;55.00
37456;DHT22;23316;50.718;7.328;2023-09-19T06:50:26;18.20;55.00
37456;DHT22;23316;50.718;7.328;2023-09-19T06:52:54;18.30;55.00
37456;DHT22;23316;50.718;7.328;2023-09-19T06:55:24;18.30;54.90
37456;DHT22;23316;50.718;7.328;2023-09-19T06:57:53;18.30;54.90
37456;DHT22;23316;50.718;7.328;2023-09-19T07:00:21;18.30;54.90
37456;DHT22;23316;50.718;7.328;2023-09-19T07:02:56;18.30;54.90
37456;DHT22;23316;50.718;7.328;2023-09-19T07:05:24;18.30;54.90
37456;DHT22;23316;50.718;7.328;2023-09-19T07:07:53;18.30;54.80
37456;DHT22;23316;50.718;7.328;2023-09-19T07:10:22;18.40;54.80
37456;DHT22;23316;50.718;7.328;2023-09-19T07:12:56;18.40;54.80
37456;DHT22;23316;50.718;7.328;2023-09-19T07:15:24;18.40;54.70
37456;DHT22;23316;50.718;7.328;2023-09-19T07:17:52;18.40;54.80
37456;DHT22;23316;50.718;7.328;2023-09-19T07:20:20;18.40;54.70
37456;DHT22;23316;50.718;7.328;2023-09-19T07:22:47;18.50;54.70
37456;DHT22;23316;50.718;7.328;2023-09-19T07:25:16;18.40;54.60
37456;DHT22;23316;50.718;7.328;2023-09-19T07:27:44;18.50;54.70
37456;DHT22;23316;50.718;7.328;2023-09-19T07:30:13;18.50;54.60
37456;DHT22;23316;50.718;7.328;2023-09-19T07:32:41;18.60;54.60
37456;DHT22;23316;50.718;7.328;2023-09-19T07:35:08;18.50;54.50
37456;DHT22;23316;50.718;7.328;2023-09-19T07:37:35;18.60;54.50
37456;DHT22;23316;50.718;7.328;2023-09-19T07:40:03;18.60;54.50
37456;DHT22;23316;50.718;7.328;2023-09-19T07:42:33;18.60;54.40
37456;DHT22;23316;50.718;7.328;2023-09-19T07:45:01;18.60;54.30
37456;DHT22;23316;50.718;7.328;2023-09-19T07:47:29;18.70;54.30
37456;DHT22;23316;50.718;7.328;2023-09-19T07:49:58;18.70;54.30
37456;DHT22;23316;50.718;7.328;2023-09-19T07:52:27;18.70;54.20
37456;DHT22;23316;50.718;7.328;2023-09-19T07:54:55;18.70;54.20
37456;DHT22;23316;50.718;7.328;2023-09-19T07:57:23;18.80;54.10
37456;DHT22;23316;50.718;7.328;2023-09-19T07:59:50;18.80;54.00
37456;DHT22;23316;50.718;7.328;2023-09-19T08:02:18;18.80;54.00
37456;DHT22;23316;50.718;7.328;2023-09-19T08:04:47;18.80;53.90
37456;DHT22;23316;50.718;7.328;2023-09-19T08:07:15;18.80;53.90
37456;DHT22;23316;50.718;7.328;2023-09-19T08:09:42;18.90;53.80
37456;DHT22;23316;50.718;7.328;2023-09-19T08:12:12;18.90;53.60
37456;DHT22;23316;50.718;7.328;2023-09-19T08:14:40;18.90;53.80
37456;DHT22;23316;50.718;7.328;2023-09-19T08:17:08;18.90;53.50
37456;DHT22;23316;50.718;7.328;2023-09-19T08:19:35;19.00;53.60
37456;DHT22;23316;50.718;7.328;2023-09-19T08:22:04;19.00;53.60
37456;DHT22;23316;50.718;7.328;2023-09-19T08:24:31;19.00;53.60
37456;DHT22;23316;50.718;7.328;2023-09-19T08:26:59;19.10;53.70
37456;DHT22;23316;50.718;7.328;2023-09-19T08:29:31;19.10;53.60
37456;DHT22;23316;50.718;7.328;2023-09-19T08:31:58;19.10;53.50
37456;DHT22;23316;50.718;7.328;2023-09-19T08:34:26;19.10;53.30
37456;DHT22;23316;50.718;7.328;2023-09-19T08:36:54;19.20;53.30
37456;DHT22;23316;50.718;7.328;2023-09-19T08:39:23;19.20;53.30
37456;DHT22;23316;50.718;7.328;2023-09-19T08:41:57;19.20;53.30
37456;DHT22;23316;50.718;7.328;2023-09-19T08:44:25;19.30;53.30
37456;DHT22;23316;50.718;7.328;2023-09-19T08:46:55;19.30;53.20
37456;DHT22;23316;50.718;7.328;2023-09-19T08:49:27;19.30;53.00
37456;DHT22;23316;50.718;7.328;2023-09-19T08:52:06;19.40;53.10
37456;DHT22;23316;50.718;7.328;2023-09-19T08:54:38;19.40;52.80
37456;DHT22;23316;50.718;7.328;2023-09-19T08:57:07;19.40;52.70
37456;DHT22;23316;50.718;7.328;2023-09-19T08:59:38;19.50;52.80
37456;DHT22;23316;50.718;7.328;2023-09-19T09:02:11;19.50;52.50
37456;DHT22;23316;50.718;7.328;2023-09-19T09:04:40;19.50;52.60
37456;DHT22;23316;50.718;7.328;2023-09-19T09:07:10;19.50;52.40
37456;DHT22;23316;50.718;7.328;2023-09-19T09:09:40;19.60;52.20
37456;DHT22;23316;50.718;7.328;2023-09-19T09:12:10;19.60;52.20
37456;DHT22;23316;50.718;7.328;2023-09-19T09:14:39;19.60;52.20
37456;DHT22;23316;50.718;7.328;2023-09-19T09:17:07;19.70;52.20
37456;DHT22;23316;50.718;7.328;2023-09-19T09:19:34;19.70;52.10
37456;DHT22;23316;50.718;7.328;2023-09-19T09:22:07;19.70;52.00
37456;DHT22;23316;50.718;7.328;2023-09-19T09:24:34;19.70;51.80
37456;DHT22;23316;50.718;7.328;2023-09-19T09:27:05;19.70;51.90
37456;DHT22;23316;50.718;7.328;2023-09-19T09:29:45;19.80;51.80
37456;DHT22;23316;50.718;7.328;2023-09-19T09:32:19;19.80;51.70
37456;DHT22;23316;50.718;7.328;2023-09-19T09:34:49;19.80;51.40
37456;DHT22;23316;50.718;7.328;2023-09-19T09:37:20;19.90;51.60
37456;DHT22;23316;50.718;7.328;2023-09-19T09:39:52;19.90;51.70
37456;DHT22;23316;50.718;7.328;2023-09-19T09:42:33;19.90;51.40
37456;DHT22;23316;50.718;7.328;2023-09-19T09:45:18;20.00;50.90
37456;DHT22;23316;50.718;7.328;2023-09-19T09:47:54;20.00;51.10
37456;DHT22;23316;50.718;7.328;2023-09-19T09:50:26;20.00;50.80
37456;DHT22;23316;50.718;7.328;2023-09-19T09:52:55;20.00;50.60
37456;DHT22;23316;50.718;7.328;2023-09-19T09:55:57;20.10;50.40
37456;DHT22;23316;50.718;7.328;2023-09-19T09:58:26;20.10;50.40
37456;DHT22;23316;50.718;7.328;2023-09-19T10:00:56;20.10;50.70
37456;DHT22;23316;50.718;7.328;2023-09-19T10:03:32;20.10;50.30
37456;DHT22;23316;50.718;7.328;2023-09-19T10:06:05;20.20;50.30
37456;DHT22;23316;50.718;7.328;2023-09-19T10:08:38;20.20;50.30
37456;DHT22;23316;50.718;7.328;2023-09-19T10:11:18;20.30;50.50
37456;DHT22;23316;50.718;7.328;2023-09-19T10:13:47;20.30;50.30
37456;DHT22;23316;50.718;7.328;2023-09-19T10:16:16;20.30;50.20
37456;DHT22;23316;50.718;7.328;2023-09-19T10:18:46;20.30;50.20
37456;DHT22;23316;50.718;7.328;2023-09-19T10:21:15;20.40;50.30
37456;DHT22;23316;50.718;7.328;2023-09-19T10:23:51;20.40;50.20
37456;DHT22;23316;50.718;7.328;2023-09-19T10:26:22;20.50;49.90
37456;DHT22;23316;50.718;7.328;2023-09-19T10:28:53;20.50;49.80
37456;DHT22;23316;50.718;7.328;2023-09-19T10:31:22;20.50;49.70
37456;DHT22;23316;50.718;7.328;2023-09-19T10:33:51;20.60;49.30
37456;DHT22;23316;50.718;7.328;2023-09-19T10:36:22;20.60;49.20
37456;DHT22;23316;50.718;7.328;2023-09-19T10:38:53;20.60;49.00
37456;DHT22;23316;50.718;7.328;2023-09-19T10:41:22;20.70;48.80
37456;DHT22;23316;50.718;7.328;2023-09-19T10:43:52;20.70;48.90
37456;DHT22;23316;50.718;7.328;2023-09-19T10:46:21;20.80;49.20
37456;DHT22;23316;50.718;7.328;2023-09-19T10:48:50;20.80;48.90
37456;DHT22;23316;50.718;7.328;2023-09-19T10:51:23;20.90;49.00
37456;DHT22;23316;50.718;7.328;2023-09-19T10:53:53;20.90;49.20
37456;DHT22;23316;50.718;7.328;2023-09-19T10:56:26;20.90;49.40
37456;DHT22;23316;50.718;7.328;2023-09-19T10:59:08;21.00;49.40
37456;DHT22;23316;50.718;7.328;2023-09-19T11:01:46;21.00;49.10
37456;DHT22;23316;50.718;7.328;2023-09-19T11:04:22;21.10;49.50
37456;DHT22;23316;50.718;7.328;2023-09-19T11:07:00;21.10;48.40
37456;DHT22;23316;50.718;7.328;2023-09-19T11:09:44;21.20;48.40
37456;DHT22;23316;50.718;7.328;2023-09-19T11:14:57;21.20;48.20
37456;DHT22;23316;50.718;7.328;2023-09-19T11:17:42;21.30;48.30
37456;DHT22;23316;50.718;7.328;2023-09-19T11:20:22;21.30;47.70
37456;DHT22;23316;50.718;7.328;2023-09-19T11:23:21;21.40;47.80
37456;DHT22;23316;50.718;7.328;2023-09-19T11:25:53;21.40;47.50
37456;DHT22;23316;50.718;7.328;2023-09-19T11:28:31;21.50;47.40
37456;DHT22;23316;50.718;7.328;2023-09-19T11:31:00;21.50;47.20
37456;DHT22;23316;50.718;7.328;2023-09-19T11:33:47;21.50;47.30
37456;DHT22;23316;50.718;7.328;2023-09-19T11:36:16;21.60;47.20
37456;DHT22;23316;50.718;7.328;2023-09-19T11:38:58;21.60;47.20
37456;DHT22;23316;50.718;7.328;2023-09-19T11:41:40;21.60;46.90
37456;DHT22;23316;50.718;7.328;2023-09-19T11:44:32;21.60;46.90
37456;DHT22;23316;50.718;7.328;2023-09-19T11:47:06;21.70;46.60
37456;DHT22;23316;50.718;7.328;2023-09-19T11:49:35;21.70;46.80
37456;DHT22;23316;50.718;7.328;2023-09-19T11:52:07;21.70;46.60
37456;DHT22;23316;50.718;7.328;2023-09-19T11:54:35;21.70;47.00
37456;DHT22;23316;50.718;7.328;2023-09-19T11:57:06;21.80;46.90
37456;DHT22;23316;50.718;7.328;2023-09-19T11:59:38;21.80;46.30
37456;DHT22;23316;50.718;7.328;2023-09-19T12:02:07;21.80;45.90
37456;DHT22;23316;50.718;7.328;2023-09-19T12:04:39;21.80;45.60
37456;DHT22;23316;50.718;7.328;2023-09-19T12:07:11;21.80;46.10
37456;DHT22;23316;50.718;7.328;2023-09-19T12:09:41;21.80;46.20
37456;DHT22;23316;50.718;7.328;2023-09-19T12:12:10;21.80;46.10
37456;DHT22;23316;50.718;7.328;2023-09-19T12:14:39;21.80;46.10
37456;DHT22;23316;50.718;7.328;2023-09-19T12:17:10;21.90;46.20
37456;DHT22;23316;50.718;7.328;2023-09-19T12:19:40;21.90;46.20
37456;DHT22;23316;50.718;7.328;2023-09-19T12:22:16;21.90;46.10
37456;DHT22;23316;50.718;7.328;2023-09-19T12:24:45;21.90;45.70
37456;DHT22;23316;50.718;7.328;2023-09-19T12:27:13;21.90;45.50
37456;DHT22;23316;50.718;7.328;2023-09-19T12:29:44;21.90;45.50
37456;DHT22;23316;50.718;7.328;2023-09-19T12:32:13;21.90;45.20
37456;DHT22;23316;50.718;7.328;2023-09-19T12:34:45;21.90;45.40
37456;DHT22;23316;50.718;7.328;2023-09-19T12:37:18;21.90;45.50
37456;DHT22;23316;50.718;7.328;2023-09-19T12:39:49;22.00;45.80
37456;DHT22;23316;50.718;7.328;2023-09-19T12:42:20;22.00;45.70
37456;DHT22;23316;50.718;7.328;2023-09-19T12:44:50;22.00;45.50
37456;DHT22;23316;50.718;7.328;2023-09-19T12:47:24;22.00;45.40
37456;DHT22;23316;50.718;7.328;2023-09-19T12:50:12;22.10;45.40
37456;DHT22;23316;50.718;7.328;2023-09-19T12:52:42;22.10;45.50
37456;DHT22;23316;50.718;7.328;2023-09-19T12:55:21;22.10;45.20
37456;DHT22;23316;50.718;7.328;2023-09-19T12:58:07;22.10;45.40
37456;DHT22;23316;50.718;7.328;2023-09-19T13:00:36;22.20;45.40
37456;DHT22;23316;50.718;7.328;2023-09-19T13:03:24;22.20;45.50
37456;DHT22;23316;50.718;7.328;2023-09-19T13:05:52;22.20;45.10
37456;DHT22;23316;50.718;7.328;2023-09-19T13:08:25;22.20;45.30
37456;DHT22;23316;50.718;7.328;2023-09-19T13:11:02;22.30;45.10
37456;DHT22;23316;50.718;7.328;2023-09-19T13:13:28;22.30;44.90
37456;DHT22;23316;50.718;7.328;2023-09-19T13:15:56;22.30;45.10
37456;DHT22;23316;50.718;7.328;2023-09-19T13:18:25;22.30;45.20
37456;DHT22;23316;50.718;7.328;2023-09-19T13:21:05;22.30;45.10
37456;DHT22;23316;50.718;7.328;2023-09-19T13:23:34;22.40;45.30
37456;DHT22;23316;50.718;7.328;2023-09-19T13:26:03;22.40;45.10
37456;DHT22;23316;50.718;7.328;2023-09-19T13:28:33;22.40;45.30
37456;DHT22;23316;50.718;7.328;2023-09-19T13:31:00;22.40;45.00
37456;DHT22;23316;50.718;7.328;2023-09-19T13:33:29;22.40;45.10
37456;DHT22;23316;50.718;7.328;2023-09-19T13:35:56;22.50;44.60
37456;DHT22;23316;50.718;7.328;2023-09-19T13:38:24;22.50;44.80
37456;DHT22;23316;50.718;7.328;2023-09-19T13:40:51;22.50;44.60
37456;DHT22;23316;50.718;7.328;2023-09-19T13:43:19;22.50;44.20
37456;DHT22;23316;50.718;7.328;2023-09-19T13:45:48;22.60;44.10
37456;DHT22;23316;50.718;7.328;2023-09-19T13:48:16;22.60;44.10
37456;DHT22;23316;50.718;7.328;2023-09-19T13:50:48;22.60;44.20
37456;DHT22;23316;50.718;7.328;2023-09-19T13:53:15;22.60;44.10
37456;DHT22;23316;50.718;7.328;2023-09-19T13:55:43;22.60;44.20
37456;DHT22;23316;50.718;7.328;2023-09-19T13:58:11;22.60;44.20
37456;DHT22;23316;50.718;7.328;2023-09-19T14:00:38;22.60;44.30
37456;DHT22;23316;50.718;7.328;2023-09-19T14:03:06;22.70;44.60
37456;DHT22;23316;50.718;7.328;2023-09-19T14:05:33;22.70;44.40
37456;DHT22;23316;50.718;7.328;2023-09-19T14:08:02;22.70;44.10
37456;DHT22;23316;50.718;7.328;2023-09-19T14:10:30;22.70;44.20
37456;DHT22;23316;50.718;7.328;2023-09-19T14:12:57;22.70;44.30
37456;DHT22;23316;50.718;7.328;2023-09-19T14:15:25;22.70;44.30
37456;DHT22;23316;50.718;7.328;2023-09-19T14:17:57;22.70;44.10
37456;DHT22;23316;50.718;7.328;2023-09-19T14:20:25;22.70;44.10
37456;DHT22;23316;50.718;7.328;2023-09-19T14:22:53;22.70;43.50
37456;DHT22;23316;50.718;7.328;2023-09-19T14:25:22;22.70;43.30
37456;DHT22;23316;50.718;7.328;2023-09-19T14:27:50;22.70;43.30
37456;DHT22;23316;50.718;7.328;2023-09-19T14:30:17;22.70;43.50
37456;DHT22;23316;50.718;7.328;2023-09-19T14:32:45;22.70;43.70
37456;DHT22;23316;50.718;7.328;2023-09-19T14:35:12;22.80;43.90
37456;DHT22;23316;50.718;7.328;2023-09-19T14:37:40;22.70;43.80
37456;DHT22;23316;50.718;7.328;2023-09-19T14:40:08;22.80;43.70
37456;DHT22;23316;50.718;7.328;2023-09-19T14:42:39;22.80;43.60
37456;DHT22;23316;50.718;7.328;2023-09-19T14:45:07;22.80;43.70
37456;DHT22;23316;50.718;7.328;2023-09-19T14:47:35;22.80;43.90
37456;DHT22;23316;50.718;7.328;2023-09-19T14:50:04;22.80;43.80
37456;DHT22;23316;50.718;7.328;2023-09-19T14:52:32;22.80;43.70
37456;DHT22;23316;50.718;7.328;2023-09-19T14:55:00;22.90;43.60
37456;DHT22;23316;50.718;7.328;2023-09-19T14:57:28;22.90;43.60
37456;DHT22;23316;50.718;7.328;2023-09-19T14:59:56;22.90;43.50
37456;DHT22;23316;50.718;7.328;2023-09-19T15:02:24;22.90;43.10
37456;DHT22;23316;50.718;7.328;2023-09-19T15:04:51;23.00;43.00
37456;DHT22;23316;50.718;7.328;2023-09-19T15:07:19;23.00;42.60
37456;DHT22;23316;50.718;7.328;2023-09-19T15:09:46;23.00;42.60
37456;DHT22;23316;50.718;7.328;2023-09-19T15:12:13;23.00;42.40
37456;DHT22;23316;50.718;7.328;2023-09-19T15:14:41;23.00;42.30
37456;DHT22;23316;50.718;7.328;2023-09-19T15:17:10;23.00;42.20
37456;DHT22;23316;50.718;7.328;2023-09-19T15:19:37;23.00;42.10
37456;DHT22;23316;50.718;7.328;2023-09-19T15:22:04;22.90;42.50
37456;DHT22;23316;50.718;7.328;2023-09-19T15:24:32;23.00;42.30
37456;DHT22;23316;50.718;7.328;2023-09-19T15:27:00;23.00;42.20
37456;DHT22;23316;50.718;7.328;2023-09-19T15:29:28;23.00;42.40
37456;DHT22;23316;50.718;7.328;2023-09-19T15:31:55;22.90;42.20
37456;DHT22;23316;50.718;7.328;2023-09-19T15:34:26;22.90;42.30
37456;DHT22;23316;50.718;7.328;2023-09-19T15:36:54;22.90;42.40
37456;DHT22;23316;50.718;7.328;2023-09-19T15:39:21;22.90;42.40
37456;DHT22;23316;50.718;7.328;2023-09-19T15:41:49;22.90;42.40
37456;DHT22;23316;50.718;7.328;2023-09-19T15:44:19;22.90;42.40
37456;DHT22;23316;50.718;7.328;2023-09-19T15:46:46;22.90;42.20
37456;DHT22;23316;50.718;7.328;2023-09-19T15:49:14;22.80;42.20
37456;DHT22;23316;50.718;7.328;2023-09-19T15:51:42;22.80;42.20